sensor_id;sensor_type;location;lat;lon;timestamp;temperature;humidity
39045;DHT22;52192;52.002;5.956;2023-11-19T00:00:16;14.30;91.80
39045;DHT22;52192;52.002;5.956;2023-11-19T00:02:42;14.30;91.80
39045;DHT22;52192;52.002;5.956;2023-11-19T00:05:09;14.40;91.70
39045;DHT22;52192;52.002;5.956;2023-11-19T00:07:36;14.40;91.70
39045;DHT22;52192;52.002;5.956;2023-11-19T00:10:02;14.40;91.80
39045;DHT22;52192;52.002;5.956;2023-11-19T00:12:32;14.40;91.80
39045;DHT22;52192;52.002;5.956;2023-11-19T00:14:58;14.40;91.60
39045;DHT22;52192;52.002;5.956;2023-11-19T00:17:23;14.50;91.70
39045;DHT22;52192;52.002;5.956;2023-11-19T00:19:49;14.50;91.60
39045;DHT22;52192;52.002;5.956;2023-11-19T00:22:17;14.50;91.60
39045;DHT22;52192;52.002;5.956;2023-11-19T00:24:42;14.50;91.60
39045;DHT22;52192;52.002;5.956;2023-11-19T00:27:08;14.50;91.70
39045;DHT22;52192;52.002;5.956;2023-11-19T00:29:34;14.50;91.80
39045;DHT22;52192;52.002;5.956;2023-11-19T00:31:59;14.50;91.80
39045;DHT22;52192;52.002;5.956;2023-11-19T00:34:25;14.50;91.80
39045;DHT22;52192;52.002;5.956;2023-11-19T00:36:51;14.60;91.80
39045;DHT22;52192;52.002;5.956;2023-11-19T00:39:17;14.60;91.70
39045;DHT22;52192;52.002;5.956;2023-11-19T00:41:43;14.60;91.70
39045;DHT22;52192;52.002;5.956;2023-11-19T00:44:09;14.60;91.80
39045;DHT22;52192;52.002;5.956;2023-11-19T00:46:34;14.60;91.80
39045;DHT22;52192;52.002;5.956;2023-11-19T00:49:00;14.60;91.80
39045;DHT22;52192;52.002;5.956;2023-11-19T00:51:26;14.70;91.70
39045;DHT22;52192;52.002;5.956;2023-11-19T00:53:52;14.70;91.70
39045;DHT22;52192;52.002;5.956;2023-11-19T00:56:18;14.70;91.60
39045;DHT22;52192;52.002;5.956;2023-11-19T00:58:45;14.70;91.50
39045;DHT22;52192;52.002;5.956;2023-11-19T01:01:14;14.70;91.50
39045;DHT22;52192;52.002;5.956;2023-11-19T01:03:39;14.70;91.50
39045;DHT22;52192;52.002;5.956;2023-11-19T01:06:05;14.70;91.50
39045;DHT22;52192;52.002;5.956;2023-11-19T01:08:31;14.80;91.50
39045;DHT22;52192;52.002;5.956;2023-11-19T01:10:57;14.80;91.50
39045;DHT22;52192;52.002;5.956;2023-11-19T01:13:24;14.80;91.40
39045;DHT22;52192;52.002;5.956;2023-11-19T01:15:50;14.80;91.40
39045;DHT22;52192;52.002;5.956;2023-11-19T01:18:15;14.80;91.50
39045;DHT22;52192;52.002;5.956;2023-11-19T01:20:42;14.80;91.50
39045;DHT22;52192;52.002;5.956;2023-11-19T01:23:07;14.80;91.40
39045;DHT22;52192;52.002;5.956;2023-11-19T01:25:33;14.80;91.40
39045;DHT22;52192;52.002;5.956;2023-11-19T01:27:59;14.80;91.40
39045;DHT22;52192;52.002;5.956;2023-11-19T01:30:25;14.80;91.40
39045;DHT22;52192;52.002;5.956;2023-11-19T01:32:51;14.80;91.40
39045;DHT22;52192;52.002;5.956;2023-11-19T01:35:17;14.80;91.40
39045;DHT22;52192;52.002;5.956;2023-11-19T01:37:43;14.80;91.30
39045;DHT22;52192;52.002;5.956;2023-11-19T01:40:09;14.80;91.30
39045;DHT22;52192;52.002;5.956;2023-11-19T01:42:40;14.80;91.30
39045;DHT22;52192;52.002;5.956;2023-11-19T01:45:06;14.90;91.20
39045;DHT22;52192;52.002;5.956;2023-11-19T01:47:35;14.90;91.20
39045;DHT22;52192;52.002;5.956;2023-11-19T01:50:02;14.90;91.20
39045;DHT22;52192;52.002;5.956;2023-11-19T01:52:33;14.90;91.10
39045;DHT22;52192;52.002;5.956;2023-11-19T01:55:01;14.90;91.10
39045;DHT22;52192;52.002;5.956;2023-11-19T01:57:28;14.90;91.20
39045;DHT22;52192;52.002;5.956;2023-11-19T01:59:53;14.90;91.10
39045;DHT22;52192;52.002;5.956;2023-11-19T02:02:19;14.90;91.10
39045;DHT22;52192;52.002;5.956;2023-11-19T02:04:50;14.90;91.00
39045;DHT22;52192;52.002;5.956;2023-11-19T02:07:16;14.90;91.00
39045;DHT22;52192;52.002;5.956;2023-11-19T02:09:45;14.90;91.00
39045;DHT22;52192;52.002;5.956;2023-11-19T02:12:10;14.80;91.00
39045;DHT22;52192;52.002;5.956;2023-11-19T02:14:39;14.80;91.00
39045;DHT22;52192;52.002;5.956;2023-11-19T02:17:05;14.90;90.90
39045;DHT22;52192;52.002;5.956;2023-11-19T02:19:31;14.90;90.90
39045;DHT22;52192;52.002;5.956;2023-11-19T02:21:56;14.90;90.90
39045;DHT22;52192;52.002;5.956;2023-11-19T02:24:23;14.80;90.80
39045;DHT22;52192;52.002;5.956;2023-11-19T02:27:20;14.90;90.90
39045;DHT22;52192;52.002;5.956;2023-11-19T02:29:49;14.80;90.70
39045;DHT22;52192;52.002;5.956;2023-11-19T02:32:15;14.80;90.80
39045;DHT22;52192;52.002;5.956;2023-11-19T02:34:41;14.80;90.80
39045;DHT22;52192;52.002;5.956;2023-11-19T02:37:07;14.80;90.70
39045;DHT22;52192;52.002;5.956;2023-11-19T02:39:33;14.80;90.70
39045;DHT22;52192;52.002;5.956;2023-11-19T02:41:59;14.80;90.60
39045;DHT22;52192;52.002;5.956;2023-11-19T02:44:25;14.90;90.60
39045;DHT22;52192;52.002;5.956;2023-11-19T02:46:53;14.80;90.50
39045;DHT22;52192;52.002;5.956;2023-11-19T02:49:19;14.80;90.50
39045;DHT22;52192;52.002;5.956;2023-11-19T02:51:46;14.80;90.50
39045;DHT22;52192;52.002;5.956;2023-11-19T02:54:11;14.80;90.50
39045;DHT22;52192;52.002;5.956;2023-11-19T02:56:42;14.80;90.40
39045;DHT22;52192;52.002;5.956;2023-11-19T02:59:08;14.80;90.40
39045;DHT22;52192;52.002;5.956;2023-11-19T03:01:43;14.70;90.30
39045;DHT22;52192;52.002;5.956;2023-11-19T03:04:14;14.70;90.30
39045;DHT22;52192;52.002;5.956;2023-11-19T03:06:42;14.70;90.30
39045;DHT22;52192;52.002;5.956;2023-11-19T03:09:08;14.60;90.20
39045;DHT22;52192;52.002;5.956;2023-11-19T03:11:35;14.60;90.10
39045;DHT22;52192;52.002;5.956;2023-11-19T03:14:01;14.60;90.10
39045;DHT22;52192;52.002;5.956;2023-11-19T03:16:28;14.70;90.10
39045;DHT22;52192;52.002;5.956;2023-11-19T03:18:54;14.60;90.00
39045;DHT22;52192;52.002;5.956;2023-11-19T03:21:28;14.60;90.00
39045;DHT22;52192;52.002;5.956;2023-11-19T03:23:53;14.60;90.00
39045;DHT22;52192;52.002;5.956;2023-11-19T03:26:19;14.50;89.90
39045;DHT22;52192;52.002;5.956;2023-11-19T03:28:45;14.50;89.50
39045;DHT22;52192;52.002;5.956;2023-11-19T03:31:10;14.50;89.50
39045;DHT22;52192;52.002;5.956;2023-11-19T03:33:36;14.50;89.70
39045;DHT22;52192;52.002;5.956;2023-11-19T03:36:03;14.50;89.60
39045;DHT22;52192;52.002;5.956;2023-11-19T03:38:29;14.50;89.50
39045;DHT22;52192;52.002;5.956;2023-11-19T03:40:54;14.40;89.60
39045;DHT22;52192;52.002;5.956;2023-11-19T03:43:20;14.50;89.40
39045;DHT22;52192;52.002;5.956;2023-11-19T03:45:46;14.40;89.10
39045;DHT22;52192;52.002;5.956;2023-11-19T03:48:12;14.40;89.20
39045;DHT22;52192;52.002;5.956;2023-11-19T03:50:37;14.40;89.20
39045;DHT22;52192;52.002;5.956;2023-11-19T03:53:03;14.30;89.30
39045;DHT22;52192;52.002;5.956;2023-11-19T03:55:30;14.30;89.00
39045;DHT22;52192;52.002;5.956;2023-11-19T03:57:56;14.20;89.00
39045;DHT22;52192;52.002;5.956;2023-11-19T04:00:22;14.20;89.00
39045;DHT22;52192;52.002;5.956;2023-11-19T04:02:48;14.10;88.90
39045;DHT22;52192;52.002;5.956;2023-11-19T04:05:14;14.10;89.10
39045;DHT22;52192;52.002;5.956;2023-11-19T04:07:39;14.00;89.10
39045;DHT22;52192;52.002;5.956;2023-11-19T04:10:05;14.00;89.10
39045;DHT22;52192;52.002;5.956;2023-11-19T04:12:31;14.00;89.30
39045;DHT22;52192;52.002;5.956;2023-11-19T04:14:57;13.90;89.20
39045;DHT22;52192;52.002;5.956;2023-11-19T04:17:22;13.90;89.20
39045;DHT22;52192;52.002;5.956;2023-11-19T04:19:51;13.90;89.20
39045;DHT22;52192;52.002;5.956;2023-11-19T04:22:17;13.90;89.10
39045;DHT22;52192;52.002;5.956;2023-11-19T04:24:42;13.90;89.20
39045;DHT22;52192;52.002;5.956;2023-11-19T04:27:10;13.90;89.20
39045;DHT22;52192;52.002;5.956;2023-11-19T04:29:36;13.80;88.90
39045;DHT22;52192;52.002;5.956;2023-11-19T04:32:02;13.80;88.90
39045;DHT22;52192;52.002;5.956;2023-11-19T04:34:28;13.70;88.80
39045;DHT22;52192;52.002;5.956;2023-11-19T04:36:53;13.70;88.60
39045;DHT22;52192;52.002;5.956;2023-11-19T04:39:19;13.70;88.50
39045;DHT22;52192;52.002;5.956;2023-11-19T04:41:48;13.70;88.40
39045;DHT22;52192;52.002;5.956;2023-11-19T04:44:15;13.70;88.50
39045;DHT22;52192;52.002;5.956;2023-11-19T04:46:42;13.60;88.40
39045;DHT22;52192;52.002;5.956;2023-11-19T04:49:11;13.60;88.40
39045;DHT22;52192;52.002;5.956;2023-11-19T04:51:41;13.60;87.90
39045;DHT22;52192;52.002;5.956;2023-11-19T04:54:08;13.60;87.70
39045;DHT22;52192;52.002;5.956;2023-11-19T04:56:34;13.60;87.80
39045;DHT22;52192;52.002;5.956;2023-11-19T04:59:01;13.50;87.50
39045;DHT22;52192;52.002;5.956;2023-11-19T05:01:27;13.50;87.70
39045;DHT22;52192;52.002;5.956;2023-11-19T05:03:53;13.50;87.60
39045;DHT22;52192;52.002;5.956;2023-11-19T05:06:19;13.50;87.50
39045;DHT22;52192;52.002;5.956;2023-11-19T05:08:45;13.50;87.40
39045;DHT22;52192;52.002;5.956;2023-11-19T05:11:11;13.50;87.50
39045;DHT22;52192;52.002;5.956;2023-11-19T05:13:43;13.50;87.50
39045;DHT22;52192;52.002;5.956;2023-11-19T05:16:10;13.50;87.40
39045;DHT22;52192;52.002;5.956;2023-11-19T05:18:36;13.50;87.40
39045;DHT22;52192;52.002;5.956;2023-11-19T05:21:01;13.40;87.20
39045;DHT22;52192;52.002;5.956;2023-11-19T05:23:27;13.50;87.30
39045;DHT22;52192;52.002;5.956;2023-11-19T05:25:53;13.50;87.20
39045;DHT22;52192;52.002;5.956;2023-11-19T05:28:19;13.50;87.20
39045;DHT22;52192;52.002;5.956;2023-11-19T05:30:45;13.50;87.20
39045;DHT22;52192;52.002;5.956;2023-11-19T05:33:11;13.50;87.10
39045;DHT22;52192;52.002;5.956;2023-11-19T05:35:37;13.50;87.00
39045;DHT22;52192;52.002;5.956;2023-11-19T05:38:02;13.50;87.00
39045;DHT22;52192;52.002;5.956;2023-11-19T05:40:28;13.50;87.00
39045;DHT22;52192;52.002;5.956;2023-11-19T05:42:54;13.50;87.00
39045;DHT22;52192;52.002;5.956;2023-11-19T05:45:20;13.60;86.80
39045;DHT22;52192;52.002;5.956;2023-11-19T05:47:45;13.60;86.80
39045;DHT22;52192;52.002;5.956;2023-11-19T05:50:11;13.60;86.70
39045;DHT22;52192;52.002;5.956;2023-11-19T05:52:37;13.60;86.50
39045;DHT22;52192;52.002;5.956;2023-11-19T05:55:03;13.50;86.60
39045;DHT22;52192;52.002;5.956;2023-11-19T05:57:35;13.50;86.50
39045;DHT22;52192;52.002;5.956;2023-11-19T06:00:01;13.50;86.50
39045;DHT22;52192;52.002;5.956;2023-11-19T06:02:28;13.50;86.50
39045;DHT22;52192;52.002;5.956;2023-11-19T06:04:54;13.50;86.40
39045;DHT22;52192;52.002;5.956;2023-11-19T06:07:20;13.50;86.40
39045;DHT22;52192;52.002;5.956;2023-11-19T06:09:45;13.60;86.30
39045;DHT22;52192;52.002;5.956;2023-11-19T06:12:11;13.60;86.30
39045;DHT22;52192;52.002;5.956;2023-11-19T06:14:37;13.60;86.00
39045;DHT22;52192;52.002;5.956;2023-11-19T06:17:03;13.60;86.00
39045;DHT22;52192;52.002;5.956;2023-11-19T06:19:30;13.60;85.90
39045;DHT22;52192;52.002;5.956;2023-11-19T06:21:56;13.60;85.90
39045;DHT22;52192;52.002;5.956;2023-11-19T06:24:21;13.60;85.70
39045;DHT22;52192;52.002;5.956;2023-11-19T06:26:47;13.50;85.60
39045;DHT22;52192;52.002;5.956;2023-11-19T06:29:13;13.50;85.80
39045;DHT22;52192;52.002;5.956;2023-11-19T06:31:44;13.50;85.80
39045;DHT22;52192;52.002;5.956;2023-11-19T06:34:10;13.50;85.90
39045;DHT22;52192;52.002;5.956;2023-11-19T06:36:36;13.50;85.90
39045;DHT22;52192;52.002;5.956;2023-11-19T06:39:01;13.50;85.90
39045;DHT22;52192;52.002;5.956;2023-11-19T06:41:27;13.50;85.90
39045;DHT22;52192;52.002;5.956;2023-11-19T06:43:54;13.50;85.90
39045;DHT22;52192;52.002;5.956;2023-11-19T06:46:20;13.50;86.00
39045;DHT22;52192;52.002;5.956;2023-11-19T06:48:46;13.50;85.90
39045;DHT22;52192;52.002;5.956;2023-11-19T06:51:12;13.50;86.00
39045;DHT22;52192;52.002;5.956;2023-11-19T06:53:38;13.50;85.90
39045;DHT22;52192;52.002;5.956;2023-11-19T06:56:10;13.50;86.00
39045;DHT22;52192;52.002;5.956;2023-11-19T06:58:42;13.50;86.00
39045;DHT22;52192;52.002;5.956;2023-11-19T07:01:08;13.50;86.00
39045;DHT22;52192;52.002;5.956;2023-11-19T07:03:35;13.40;85.90
39045;DHT22;52192;52.002;5.956;2023-11-19T07:06:00;13.50;85.90
39045;DHT22;52192;52.002;5.956;2023-11-19T07:08:26;13.50;86.00
39045;DHT22;52192;52.002;5.956;2023-11-19T07:10:52;13.50;85.80
39045;DHT22;52192;52.002;5.956;2023-11-19T07:13:18;13.40;85.60
39045;DHT22;52192;52.002;5.956;2023-11-19T07:15:44;13.40;85.70
39045;DHT22;52192;52.002;5.956;2023-11-19T07:18:10;13.40;85.70
39045;DHT22;52192;52.002;5.956;2023-11-19T07:20:37;13.40;85.80
39045;DHT22;52192;52.002;5.956;2023-11-19T07:23:03;13.40;85.70
39045;DHT22;52192;52.002;5.956;2023-11-19T07:25:29;13.40;85.70
39045;DHT22;52192;52.002;5.956;2023-11-19T07:27:55;13.50;85.90
39045;DHT22;52192;52.002;5.956;2023-11-19T07:30:22;13.50;85.80
39045;DHT22;52192;52.002;5.956;2023-11-19T07:32:47;13.50;85.80
39045;DHT22;52192;52.002;5.956;2023-11-19T07:35:14;13.50;85.70
39045;DHT22;52192;52.002;5.956;2023-11-19T07:37:41;13.50;85.70
39045;DHT22;52192;52.002;5.956;2023-11-19T07:40:08;13.50;85.60
39045;DHT22;52192;52.002;5.956;2023-11-19T07:42:33;13.50;85.50
39045;DHT22;52192;52.002;5.956;2023-11-19T07:44:59;13.40;85.60
39045;DHT22;52192;52.002;5.956;2023-11-19T07:47:25;13.50;85.70
39045;DHT22;52192;52.002;5.956;2023-11-19T07:49:51;13.40;85.20
39045;DHT22;52192;52.002;5.956;2023-11-19T07:52:16;13.50;85.30
39045;DHT22;52192;52.002;5.956;2023-11-19T07:54:42;13.50;85.40
39045;DHT22;52192;52.002;5.956;2023-11-19T07:57:08;13.50;85.30
39045;DHT22;52192;52.002;5.956;2023-11-19T07:59:33;13.50;85.20
39045;DHT22;52192;52.002;5.956;2023-11-19T08:01:59;13.60;85.70
39045;DHT22;52192;52.002;5.956;2023-11-19T08:04:25;13.60;84.90
39045;DHT22;52192;52.002;5.956;2023-11-19T08:06:50;13.60;84.90
39045;DHT22;52192;52.002;5.956;2023-11-19T08:09:17;13.60;84.90
39045;DHT22;52192;52.002;5.956;2023-11-19T08:11:43;13.70;84.90
39045;DHT22;52192;52.002;5.956;2023-11-19T08:14:09;13.70;84.80
39045;DHT22;52192;52.002;5.956;2023-11-19T08:16:35;13.80;84.80
39045;DHT22;52192;52.002;5.956;2023-11-19T08:19:01;13.90;84.50
39045;DHT22;52192;52.002;5.956;2023-11-19T08:21:28;14.00;84.30
39045;DHT22;52192;52.002;5.956;2023-11-19T08:23:54;13.90;84.00
39045;DHT22;52192;52.002;5.956;2023-11-19T08:26:20;14.00;84.00
39045;DHT22;52192;52.002;5.956;2023-11-19T08:28:45;13.90;83.70
39045;DHT22;52192;52.002;5.956;2023-11-19T08:31:11;13.90;83.90
39045;DHT22;52192;52.002;5.956;2023-11-19T08:33:37;14.00;83.80
39045;DHT22;52192;52.002;5.956;2023-11-19T08:36:03;13.90;83.70
39045;DHT22;52192;52.002;5.956;2023-11-19T08:38:29;13.90;83.70
39045;DHT22;52192;52.002;5.956;2023-11-19T08:40:55;13.90;83.60
39045;DHT22;52192;52.002;5.956;2023-11-19T08:43:26;13.90;83.70
39045;DHT22;52192;52.002;5.956;2023-11-19T08:45:52;13.90;84.30
39045;DHT22;52192;52.002;5.956;2023-11-19T08:48:17;13.90;83.70
39045;DHT22;52192;52.002;5.956;2023-11-19T08:50:43;13.90;83.50
39045;DHT22;52192;52.002;5.956;2023-11-19T08:53:09;14.00;83.20
39045;DHT22;52192;52.002;5.956;2023-11-19T08:55:37;13.90;83.20
39045;DHT22;52192;52.002;5.956;2023-11-19T08:58:03;13.90;83.00
39045;DHT22;52192;52.002;5.956;2023-11-19T09:00:28;14.00;82.90
39045;DHT22;52192;52.002;5.956;2023-11-19T09:02:55;14.00;82.90
39045;DHT22;52192;52.002;5.956;2023-11-19T09:05:20;14.00;82.80
39045;DHT22;52192;52.002;5.956;2023-11-19T09:07:46;14.00;82.50
39045;DHT22;52192;52.002;5.956;2023-11-19T09:10:12;14.10;82.20
39045;DHT22;52192;52.002;5.956;2023-11-19T09:12:37;14.00;82.20
39045;DHT22;52192;52.002;5.956;2023-11-19T09:15:03;14.00;82.20
39045;DHT22;52192;52.002;5.956;2023-11-19T09:17:29;14.00;82.30
39045;DHT22;52192;52.002;5.956;2023-11-19T09:19:55;14.10;82.90
39045;DHT22;52192;52.002;5.956;2023-11-19T09:22:21;14.20;82.30
39045;DHT22;52192;52.002;5.956;2023-11-19T09:24:46;14.20;81.70
39045;DHT22;52192;52.002;5.956;2023-11-19T09:27:13;14.20;81.70
39045;DHT22;52192;52.002;5.956;2023-11-19T09:29:39;14.20;81.70
39045;DHT22;52192;52.002;5.956;2023-11-19T09:32:05;14.20;81.80
39045;DHT22;52192;52.002;5.956;2023-11-19T09:34:31;14.20;81.70
39045;DHT22;52192;52.002;5.956;2023-11-19T09:36:57;14.30;81.60
39045;DHT22;52192;52.002;5.956;2023-11-19T09:39:23;14.30;81.50
39045;DHT22;52192;52.002;5.956;2023-11-19T09:41:51;14.30;81.50
39045;DHT22;52192;52.002;5.956;2023-11-19T09:44:17;14.30;81.40
39045;DHT22;52192;52.002;5.956;2023-11-19T09:46:44;14.40;81.30
39045;DHT22;52192;52.002;5.956;2023-11-19T09:49:10;14.40;80.90
39045;DHT22;52192;52.002;5.956;2023-11-19T09:51:37;14.50;80.90
39045;DHT22;52192;52.002;5.956;2023-11-19T09:54:03;14.50;80.90
39045;DHT22;52192;52.002;5.956;2023-11-19T09:56:29;14.40;81.10
39045;DHT22;52192;52.002;5.956;2023-11-19T09:58:59;14.50;80.80
39045;DHT22;52192;52.002;5.956;2023-11-19T10:01:25;14.40;80.70
39045;DHT22;52192;52.002;5.956;2023-11-19T10:03:52;14.50;81.10
39045;DHT22;52192;52.002;5.956;2023-11-19T10:06:20;14.50;80.30
39045;DHT22;52192;52.002;5.956;2023-11-19T10:08:46;14.60;80.40
39045;DHT22;52192;52.002;5.956;2023-11-19T10:11:11;14.70;80.20
39045;DHT22;52192;52.002;5.956;2023-11-19T10:13:38;14.70;79.70
39045;DHT22;52192;52.002;5.956;2023-11-19T10:16:07;14.70;79.70
39045;DHT22;52192;52.002;5.956;2023-11-19T10:18:34;14.70;79.50
39045;DHT22;52192;52.002;5.956;2023-11-19T10:21:04;14.70;79.90
39045;DHT22;52192;52.002;5.956;2023-11-19T10:23:31;14.70;79.70
39045;DHT22;52192;52.002;5.956;2023-11-19T10:26:03;14.60;79.70
39045;DHT22;52192;52.002;5.956;2023-11-19T10:28:39;14.60;80.10
39045;DHT22;52192;52.002;5.956;2023-11-19T10:31:08;14.60;80.10
39045;DHT22;52192;52.002;5.956;2023-11-19T10:33:33;14.50;79.80
39045;DHT22;52192;52.002;5.956;2023-11-19T10:35:59;14.60;80.10
39045;DHT22;52192;52.002;5.956;2023-11-19T10:38:27;14.60;80.00
39045;DHT22;52192;52.002;5.956;2023-11-19T10:40:54;14.60;80.10
39045;DHT22;52192;52.002;5.956;2023-11-19T10:43:21;14.60;79.90
39045;DHT22;52192;52.002;5.956;2023-11-19T10:45:51;14.60;79.80
39045;DHT22;52192;52.002;5.956;2023-11-19T10:48:17;14.70;80.00
39045;DHT22;52192;52.002;5.956;2023-11-19T10:50:44;14.80;79.70
39045;DHT22;52192;52.002;5.956;2023-11-19T10:53:12;14.80;79.30
39045;DHT22;52192;52.002;5.956;2023-11-19T10:55:47;14.90;79.10
39045;DHT22;52192;52.002;5.956;2023-11-19T10:58:16;15.10;78.60
39045;DHT22;52192;52.002;5.956;2023-11-19T11:00:52;15.50;77.90
39045;DHT22;52192;52.002;5.956;2023-11-19T11:03:20;15.80;76.70
39045;DHT22;52192;52.002;5.956;2023-11-19T11:05:50;16.10;74.80
39045;DHT22;52192;52.002;5.956;2023-11-19T11:08:16;16.20;74.50
39045;DHT22;52192;52.002;5.956;2023-11-19T11:10:52;16.00;74.60
39045;DHT22;52192;52.002;5.956;2023-11-19T11:13:18;16.20;74.70
39045;DHT22;52192;52.002;5.956;2023-11-19T11:15:45;16.60;73.40
39045;DHT22;52192;52.002;5.956;2023-11-19T11:18:12;17.00;72.60
39045;DHT22;52192;52.002;5.956;2023-11-19T11:20:39;17.10;71.60
39045;DHT22;52192;52.002;5.956;2023-11-19T11:29:20;16.80;70.30
39045;DHT22;52192;52.002;5.956;2023-11-19T11:37:34;16.20;71.90
39045;DHT22;52192;52.002;5.956;2023-11-19T11:40:02;15.90;72.80
39045;DHT22;52192;52.002;5.956;2023-11-19T11:42:36;15.90;73.40
39045;DHT22;52192;52.002;5.956;2023-11-19T11:45:06;15.70;73.90
39045;DHT22;52192;52.002;5.956;2023-11-19T11:50:17;15.60;74.30
39045;DHT22;52192;52.002;5.956;2023-11-19T11:55:27;15.70;74.70
39045;DHT22;52192;52.002;5.956;2023-11-19T11:57:57;15.80;74.50
39045;DHT22;52192;52.002;5.956;2023-11-19T12:02:56;15.80;74.30
39045;DHT22;52192;52.002;5.956;2023-11-19T12:05:22;15.70;73.90
39045;DHT22;52192;52.002;5.956;2023-11-19T12:07:55;15.60;74.00
39045;DHT22;52192;52.002;5.956;2023-11-19T12:10:24;15.60;74.30
39045;DHT22;52192;52.002;5.956;2023-11-19T12:12:56;15.50;74.70
39045;DHT22;52192;52.002;5.956;2023-11-19T12:15:28;16.10;75.00
39045;DHT22;52192;52.002;5.956;2023-11-19T12:17:57;17.90;71.90
39045;DHT22;52192;52.002;5.956;2023-11-19T12:20:25;19.00;65.80
39045;DHT22;52192;52.002;5.956;2023-11-19T12:22:52;19.00;65.00
39045;DHT22;52192;52.002;5.956;2023-11-19T12:25:18;18.40;65.80
39045;DHT22;52192;52.002;5.956;2023-11-19T12:27:47;17.70;66.50
39045;DHT22;52192;52.002;5.956;2023-11-19T12:30:23;17.10;68.50
39045;DHT22;52192;52.002;5.956;2023-11-19T12:32:52;16.90;69.50
39045;DHT22;52192;52.002;5.956;2023-11-19T12:35:19;16.80;70.00
39045;DHT22;52192;52.002;5.956;2023-11-19T12:37:51;16.70;70.40
39045;DHT22;52192;52.002;5.956;2023-11-19T12:40:19;17.10;70.20
39045;DHT22;52192;52.002;5.956;2023-11-19T12:42:46;17.30;68.80
39045;DHT22;52192;52.002;5.956;2023-11-19T12:45:12;17.20;68.70
39045;DHT22;52192;52.002;5.956;2023-11-19T12:47:39;17.10;68.80
39045;DHT22;52192;52.002;5.956;2023-11-19T12:50:08;17.10;68.60
39045;DHT22;52192;52.002;5.956;2023-11-19T12:52:38;17.00;69.10
39045;DHT22;52192;52.002;5.956;2023-11-19T12:55:05;16.70;69.10
39045;DHT22;52192;52.002;5.956;2023-11-19T12:57:41;16.50;70.10
39045;DHT22;52192;52.002;5.956;2023-11-19T13:00:07;16.40;70.70
39045;DHT22;52192;52.002;5.956;2023-11-19T13:02:50;16.30;71.10
39045;DHT22;52192;52.002;5.956;2023-11-19T13:05:34;16.20;71.00
39045;DHT22;52192;52.002;5.956;2023-11-19T13:08:05;16.20;71.30
39045;DHT22;52192;52.002;5.956;2023-11-19T13:13:19;16.00;71.50
39045;DHT22;52192;52.002;5.956;2023-11-19T13:15:45;16.10;71.50
39045;DHT22;52192;52.002;5.956;2023-11-19T13:18:11;16.10;71.20
39045;DHT22;52192;52.002;5.956;2023-11-19T13:20:37;16.00;71.40
39045;DHT22;52192;52.002;5.956;2023-11-19T13:23:05;16.10;71.60
39045;DHT22;52192;52.002;5.956;2023-11-19T13:25:31;16.10;71.60
39045;DHT22;52192;52.002;5.956;2023-11-19T13:27:57;15.90;71.70
39045;DHT22;52192;52.002;5.956;2023-11-19T13:30:24;15.80;72.20
39045;DHT22;52192;52.002;5.956;2023-11-19T13:32:51;15.80;72.70
39045;DHT22;52192;52.002;5.956;2023-11-19T13:35:17;15.80;73.00
39045;DHT22;52192;52.002;5.956;2023-11-19T13:37:44;15.80;73.10
39045;DHT22;52192;52.002;5.956;2023-11-19T13:40:10;15.80;73.00
39045;DHT22;52192;52.002;5.956;2023-11-19T13:42:41;15.70;73.20
39045;DHT22;52192;52.002;5.956;2023-11-19T13:45:13;15.70;73.40
39045;DHT22;52192;52.002;5.956;2023-11-19T13:47:43;15.70;73.60
39045;DHT22;52192;52.002;5.956;2023-11-19T13:50:10;15.70;74.10
39045;DHT22;52192;52.002;5.956;2023-11-19T13:52:38;15.70;73.60
39045;DHT22;52192;52.002;5.956;2023-11-19T13:55:10;15.70;73.90
39045;DHT22;52192;52.002;5.956;2023-11-19T13:57:36;15.60;74.00
39045;DHT22;52192;52.002;5.956;2023-11-19T14:00:03;15.60;74.00
39045;DHT22;52192;52.002;5.956;2023-11-19T14:02:35;15.40;74.50
39045;DHT22;52192;52.002;5.956;2023-11-19T14:05:00;15.40;74.80
39045;DHT22;52192;52.002;5.956;2023-11-19T14:07:26;15.40;75.80
39045;DHT22;52192;52.002;5.956;2023-11-19T14:09:53;15.30;76.20
39045;DHT22;52192;52.002;5.956;2023-11-19T14:12:19;15.30;76.90
39045;DHT22;52192;52.002;5.956;2023-11-19T14:14:45;15.30;77.40
39045;DHT22;52192;52.002;5.956;2023-11-19T14:17:11;15.20;77.60
39045;DHT22;52192;52.002;5.956;2023-11-19T14:19:38;15.10;77.90
39045;DHT22;52192;52.002;5.956;2023-11-19T14:22:05;15.10;78.30
39045;DHT22;52192;52.002;5.956;2023-11-19T14:24:31;15.10;78.50
39045;DHT22;52192;52.002;5.956;2023-11-19T14:26:56;15.20;78.70
39045;DHT22;52192;52.002;5.956;2023-11-19T14:29:24;15.60;78.00
39045;DHT22;52192;52.002;5.956;2023-11-19T14:31:51;16.00;76.50
39045;DHT22;52192;52.002;5.956;2023-11-19T14:34:18;16.10;75.80
39045;DHT22;52192;52.002;5.956;2023-11-19T14:36:44;15.90;75.80
39045;DHT22;52192;52.002;5.956;2023-11-19T14:39:10;15.70;76.50
39045;DHT22;52192;52.002;5.956;2023-11-19T14:41:36;15.50;76.90
39045;DHT22;52192;52.002;5.956;2023-11-19T14:44:01;15.40;77.40
39045;DHT22;52192;52.002;5.956;2023-11-19T14:46:29;15.30;77.60
39045;DHT22;52192;52.002;5.956;2023-11-19T14:48:54;15.20;77.80
39045;DHT22;52192;52.002;5.956;2023-11-19T14:51:21;15.10;78.00
39045;DHT22;52192;52.002;5.956;2023-11-19T14:53:47;15.00;78.30
39045;DHT22;52192;52.002;5.956;2023-11-19T14:56:12;15.00;78.40
39045;DHT22;52192;52.002;5.956;2023-11-19T14:58:39;15.00;78.60
39045;DHT22;52192;52.002;5.956;2023-11-19T15:01:06;14.90;78.80
39045;DHT22;52192;52.002;5.956;2023-11-19T15:03:33;14.80;78.90
39045;DHT22;52192;52.002;5.956;2023-11-19T15:05:59;14.90;79.00
39045;DHT22;52192;52.002;5.956;2023-11-19T15:08:25;14.80;79.00
39045;DHT22;52192;52.002;5.956;2023-11-19T15:10:50;14.80;79.20
39045;DHT22;52192;52.002;5.956;2023-11-19T15:13:16;14.80;79.10
39045;DHT22;52192;52.002;5.956;2023-11-19T15:15:42;14.80;79.10
39045;DHT22;52192;52.002;5.956;2023-11-19T15:18:08;14.80;79.10
39045;DHT22;52192;52.002;5.956;2023-11-19T15:20:35;14.70;79.20
39045;DHT22;52192;52.002;5.956;2023-11-19T15:23:01;14.70;79.20
39045;DHT22;52192;52.002;5.956;2023-11-19T15:25:28;14.60;79.20
39045;DHT22;52192;52.002;5.956;2023-11-19T15:27:53;14.60;79.20
39045;DHT22;52192;52.002;5.956;2023-11-19T15:30:20;14.60;79.30
39045;DHT22;52192;52.002;5.956;2023-11-19T15:32:45;14.60;79.30
39045;DHT22;52192;52.002;5.956;2023-11-19T15:35:12;14.50;79.30
39045;DHT22;52192;52.002;5.956;2023-11-19T15:37:38;14.50;79.30
39045;DHT22;52192;52.002;5.956;2023-11-19T15:40:08;14.60;79.40
39045;DHT22;52192;52.002;5.956;2023-11-19T15:42:35;14.60;79.40
39045;DHT22;52192;52.002;5.956;2023-11-19T15:45:01;14.60;79.40
39045;DHT22;52192;52.002;5.956;2023-11-19T15:47:30;14.50;79.30
39045;DHT22;52192;52.002;5.956;2023-11-19T15:49:56;14.50;79.40